sensor_id;sensor_type;location;lat;lon;timestamp;pressure;altitude;pressure_sealevel;temperature;humidity
10897;BME280;5501;51.176;6.470;2023-03-21T00:04:37;101176.59;;;11.79;80.15
10897;BME280;5501;51.176;6.470;2023-03-21T00:09:52;101174.34;;;11.62;81.16
10897;BME280;5501;51.176;6.470;2023-03-21T00:14:59;101177.00;;;11.62;80.87
10897;BME280;5501;51.176;6.470;2023-03-21T00:20:05;101163.38;;;11.74;80.78
10897;BME280;5501;51.176;6.470;2023-03-21T00:25:08;101162.59;;;11.71;80.95
10897;BME280;5501;51.176;6.470;2023-03-21T00:30:10;101159.22;;;11.63;81.29
10897;BME280;5501;51.176;6.470;2023-03-21T00:35:12;101153.78;;;11.67;81.62
10897;BME280;5501;51.176;6.470;2023-03-21T00:40:33;101155.41;;;11.73;81.22
10897;BME280;5501;51.176;6.470;2023-03-21T00:45:44;101153.94;;;11.61;81.70
10897;BME280;5501;51.176;6.470;2023-03-21T00:50:46;101144.22;;;11.60;82.00
10897;BME280;5501;51.176;6.470;2023-03-21T00:55:48;101143.09;;;11.69;81.27
10897;BME280;5501;51.176;6.470;2023-03-21T01:00:49;101132.28;;;11.75;80.84
10897;BME280;5501;51.176;6.470;2023-03-21T01:05:51;101132.28;;;11.75;80.80
10897;BME280;5501;51.176;6.470;2023-03-21T01:11:09;101124.34;;;11.72;80.93
10897;BME280;5501;51.176;6.470;2023-03-21T01:16:11;101122.75;;;11.65;81.92
10897;BME280;5501;51.176;6.470;2023-03-21T01:21:13;101113.94;;;11.63;82.08
10897;BME280;5501;51.176;6.470;2023-03-21T01:26:14;101118.63;;;11.52;83.04
10897;BME280;5501;51.176;6.470;2023-03-21T01:31:17;101112.50;;;11.48;83.59
10897;BME280;5501;51.176;6.470;2023-03-21T01:36:23;101108.97;;;11.48;84.02
10897;BME280;5501;51.176;6.470;2023-03-21T01:41:30;101093.84;;;11.50;84.34
10897;BME280;5501;51.176;6.470;2023-03-21T01:46:56;101079.59;;;11.51;84.93
10897;BME280;5501;51.176;6.470;2023-03-21T01:52:20;101081.19;;;11.58;85.23
10897;BME280;5501;51.176;6.470;2023-03-21T01:57:39;101090.06;;;11.57;85.53
10897;BME280;5501;51.176;6.470;2023-03-21T02:02:59;101084.69;;;11.60;85.62
10897;BME280;5501;51.176;6.470;2023-03-21T02:08:22;101076.28;;;11.76;85.14
10897;BME280;5501;51.176;6.470;2023-03-21T02:13:41;101065.06;;;11.64;85.46
10897;BME280;5501;51.176;6.470;2023-03-21T02:18:50;101051.22;;;11.50;86.54
10897;BME280;5501;51.176;6.470;2023-03-21T02:24:01;101056.38;;;11.56;86.48
10897;BME280;5501;51.176;6.470;2023-03-21T02:29:16;101055.59;;;11.52;86.83
10897;BME280;5501;51.176;6.470;2023-03-21T02:39:39;101048.34;;;11.57;86.67
10897;BME280;5501;51.176;6.470;2023-03-21T02:54:51;101032.69;;;11.45;87.37
10897;BME280;5501;51.176;6.470;2023-03-21T02:59:58;101028.25;;;11.46;87.31
10897;BME280;5501;51.176;6.470;2023-03-21T03:05:18;101020.38;;;11.41;87.63
10897;BME280;5501;51.176;6.470;2023-03-21T03:15:37;101017.66;;;11.43;87.60
10897;BME280;5501;51.176;6.470;2023-03-21T03:20:56;101018.69;;;11.37;88.42
10897;BME280;5501;51.176;6.470;2023-03-21T03:26:02;101001.63;;;11.46;88.28
10897;BME280;5501;51.176;6.470;2023-03-21T03:31:06;101000.38;;;11.25;89.54
10897;BME280;5501;51.176;6.470;2023-03-21T03:36:15;101006.56;;;11.27;90.11
10897;BME280;5501;51.176;6.470;2023-03-21T03:41:45;100997.25;;;11.10;90.78
10897;BME280;5501;51.176;6.470;2023-03-21T03:47:12;100990.41;;;11.33;90.01
10897;BME280;5501;51.176;6.470;2023-03-21T03:52:33;100995.94;;;11.26;90.51
10897;BME280;5501;51.176;6.470;2023-03-21T03:57:45;100993.09;;;11.32;90.54
10897;BME280;5501;51.176;6.470;2023-03-21T04:02:47;100992.00;;;11.40;90.01
10897;BME280;5501;51.176;6.470;2023-03-21T04:07:53;100990.72;;;11.21;91.36
10897;BME280;5501;51.176;6.470;2023-03-21T04:13:03;100995.25;;;11.18;92.92
10897;BME280;5501;51.176;6.470;2023-03-21T04:18:36;100988.38;;;11.43;91.97
10897;BME280;5501;51.176;6.470;2023-03-21T04:23:40;100984.97;;;11.38;92.35
10897;BME280;5501;51.176;6.470;2023-03-21T04:28:42;100983.31;;;11.34;93.50
10897;BME280;5501;51.176;6.470;2023-03-21T04:34:01;100979.84;;;11.29;94.56
10897;BME280;5501;51.176;6.470;2023-03-21T04:39:04;100975.63;;;11.22;94.35
10897;BME280;5501;51.176;6.470;2023-03-21T04:44:13;100980.78;;;11.28;94.75
10897;BME280;5501;51.176;6.470;2023-03-21T04:49:14;100979.16;;;11.22;96.13
10897;BME280;5501;51.176;6.470;2023-03-21T04:54:17;100975.25;;;11.03;97.14
10897;BME280;5501;51.176;6.470;2023-03-21T04:59:19;100966.97;;;11.14;97.80
10897;BME280;5501;51.176;6.470;2023-03-21T05:04:21;100968.88;;;11.09;98.84
10897;BME280;5501;51.176;6.470;2023-03-21T05:09:23;100961.97;;;11.02;98.21
10897;BME280;5501;51.176;6.470;2023-03-21T05:14:25;100965.38;;;11.07;98.30
10897;BME280;5501;51.176;6.470;2023-03-21T05:19:28;100954.81;;;11.04;98.58
10897;BME280;5501;51.176;6.470;2023-03-21T05:24:37;100961.16;;;10.98;98.26
10897;BME280;5501;51.176;6.470;2023-03-21T05:29:42;100951.16;;;11.08;99.62
10897;BME280;5501;51.176;6.470;2023-03-21T05:34:44;100956.66;;;11.02;99.98
10897;BME280;5501;51.176;6.470;2023-03-21T05:39:46;100958.16;;;11.10;99.22
10897;BME280;5501;51.176;6.470;2023-03-21T05:44:55;100947.16;;;11.24;98.42
10897;BME280;5501;51.176;6.470;2023-03-21T05:50:02;100950.09;;;11.47;98.61
10897;BME280;5501;51.176;6.470;2023-03-21T05:55:05;100959.00;;;11.46;98.03
10897;BME280;5501;51.176;6.470;2023-03-21T06:00:07;100948.69;;;11.34;97.47
10897;BME280;5501;51.176;6.470;2023-03-21T06:05:27;100961.13;;;11.33;97.71
10897;BME280;5501;51.176;6.470;2023-03-21T06:10:29;100961.75;;;11.43;98.26
10897;BME280;5501;51.176;6.470;2023-03-21T06:15:32;100962.31;;;11.54;97.42
10897;BME280;5501;51.176;6.470;2023-03-21T06:20:43;100960.38;;;11.28;97.19
10897;BME280;5501;51.176;6.470;2023-03-21T06:25:46;100962.38;;;11.20;97.37
10897;BME280;5501;51.176;6.470;2023-03-21T06:30:48;100964.88;;;11.25;97.42
10897;BME280;5501;51.176;6.470;2023-03-21T06:35:56;100967.22;;;11.37;96.91
10897;BME280;5501;51.176;6.470;2023-03-21T06:40:58;100974.06;;;11.47;96.67
10897;BME280;5501;51.176;6.470;2023-03-21T06:46:05;100971.31;;;11.50;96.41
10897;BME280;5501;51.176;6.470;2023-03-21T06:51:07;100971.91;;;11.61;95.28
10897;BME280;5501;51.176;6.470;2023-03-21T06:56:13;100942.09;;;11.79;94.12
10897;BME280;5501;51.176;6.470;2023-03-21T07:01:15;100938.50;;;11.80;94.19
10897;BME280;5501;51.176;6.470;2023-03-21T07:06:27;100940.91;;;11.89;93.08
10897;BME280;5501;51.176;6.470;2023-03-21T07:11:29;100942.78;;;11.85;93.12
10897;BME280;5501;51.176;6.470;2023-03-21T07:16:30;100942.38;;;11.70;94.32
10897;BME280;5501;51.176;6.470;2023-03-21T07:21:32;100937.81;;;11.73;94.12
10897;BME280;5501;51.176;6.470;2023-03-21T07:26:34;100958.09;;;11.79;94.18
10897;BME280;5501;51.176;6.470;2023-03-21T07:31:37;100955.97;;;11.90;94.89
10897;BME280;5501;51.176;6.470;2023-03-21T07:36:40;100949.09;;;11.83;94.95
10897;BME280;5501;51.176;6.470;2023-03-21T07:41:41;100961.69;;;11.78;95.43
10897;BME280;5501;51.176;6.470;2023-03-21T07:46:54;100960.13;;;11.69;97.26
10897;BME280;5501;51.176;6.470;2023-03-21T07:51:55;100966.91;;;11.81;98.28
10897;BME280;5501;51.176;6.470;2023-03-21T07:56:56;100963.84;;;11.64;99.57
10897;BME280;5501;51.176;6.470;2023-03-21T08:04:06;100960.75;;;11.47;100.00
10897;BME280;5501;51.176;6.470;2023-03-21T08:09:08;100962.22;;;11.57;100.00
10897;BME280;5501;51.176;6.470;2023-03-21T08:14:09;100964.84;;;11.58;100.00
10897;BME280;5501;51.176;6.470;2023-03-21T08:19:11;100964.84;;;11.58;100.00
10897;BME280;5501;51.176;6.470;2023-03-21T08:24:12;100962.47;;;11.48;100.00
10897;BME280;5501;51.176;6.470;2023-03-21T08:29:14;100967.81;;;11.48;100.00
10897;BME280;5501;51.176;6.470;2023-03-21T08:34:15;100960.56;;;11.53;100.00
10897;BME280;5501;51.176;6.470;2023-03-21T08:39:18;100965.69;;;11.62;100.00
10897;BME280;5501;51.176;6.470;2023-03-21T08:44:21;100964.88;;;11.57;100.00
10897;BME280;5501;51.176;6.470;2023-03-21T08:49:25;100964.22;;;11.49;100.00
10897;BME280;5501;51.176;6.470;2023-03-21T08:54:27;100965.22;;;11.77;100.00
10897;BME280;5501;51.176;6.470;2023-03-21T08:59:28;100970.41;;;11.83;100.00
10897;BME280;5501;51.176;6.470;2023-03-21T09:04:29;100961.75;;;11.75;100.00
10897;BME280;5501;51.176;6.470;2023-03-21T09:09:31;100962.94;;;11.94;100.00
10897;BME280;5501;51.176;6.470;2023-03-21T09:14:32;100964.06;;;12.16;100.00
10897;BME280;5501;51.176;6.470;2023-03-21T09:19:35;100958.75;;;12.16;100.00
10897;BME280;5501;51.176;6.470;2023-03-21T09:24:39;100955.06;;;12.20;100.00
10897;BME280;5501;51.176;6.470;2023-03-21T09:29:42;100955.44;;;12.08;100.00
10897;BME280;5501;51.176;6.470;2023-03-21T09:34:44;100949.31;;;12.33;100.00
10897;BME280;5501;51.176;6.470;2023-03-21T09:39:46;100945.25;;;12.20;100.00
10897;BME280;5501;51.176;6.470;2023-03-21T09:50:11;100943.09;;;12.33;100.00
10897;BME280;5501;51.176;6.470;2023-03-21T09:55:24;100942.66;;;12.19;100.00
10897;BME280;5501;51.176;6.470;2023-03-21T10:00:33;100926.66;;;12.19;100.00
10897;BME280;5501;51.176;6.470;2023-03-21T10:05:35;100914.25;;;11.89;100.00
10897;BME280;5501;51.176;6.470;2023-03-21T10:10:45;100909.47;;;12.00;100.00
10897;BME280;5501;51.176;6.470;2023-03-21T10:15:49;100907.97;;;11.90;100.00
10897;BME280;5501;51.176;6.470;2023-03-21T10:20:50;100888.72;;;12.37;100.00
10897;BME280;5501;51.176;6.470;2023-03-21T10:25:59;100888.41;;;12.73;100.00
10897;BME280;5501;51.176;6.470;2023-03-21T10:31:05;100884.16;;;12.92;100.00
10897;BME280;5501;51.176;6.470;2023-03-21T10:36:09;100861.75;;;12.72;100.00
10897;BME280;5501;51.176;6.470;2023-03-21T10:41:11;100862.66;;;12.71;100.00
10897;BME280;5501;51.176;6.470;2023-03-21T10:46:17;100849.00;;;13.06;99.46
10897;BME280;5501;51.176;6.470;2023-03-21T10:51:22;100857.06;;;13.29;98.68
10897;BME280;5501;51.176;6.470;2023-03-21T10:56:30;100837.44;;;13.30;95.71
10897;BME280;5501;51.176;6.470;2023-03-21T11:01:35;100836.16;;;13.17;95.76
10897;BME280;5501;51.176;6.470;2023-03-21T11:06:38;100847.22;;;13.54;91.27
10897;BME280;5501;51.176;6.470;2023-03-21T11:16:52;100846.13;;;13.59;89.82
10897;BME280;5501;51.176;6.470;2023-03-21T11:21:55;100844.75;;;13.25;90.80
10897;BME280;5501;51.176;6.470;2023-03-21T11:26:57;100839.56;;;13.45;90.73
10897;BME280;5501;51.176;6.470;2023-03-21T11:32:00;100842.22;;;13.45;92.28
10897;BME280;5501;51.176;6.470;2023-03-21T11:37:02;100830.59;;;13.46;92.55
10897;BME280;5501;51.176;6.470;2023-03-21T11:42:04;100821.06;;;13.39;91.25
10897;BME280;5501;51.176;6.470;2023-03-21T11:47:07;100824.66;;;13.38;90.33
10897;BME280;5501;51.176;6.470;2023-03-21T11:52:19;100832.66;;;13.15;91.31
10897;BME280;5501;51.176;6.470;2023-03-21T11:57:34;100840.59;;;12.92;91.55
10897;BME280;5501;51.176;6.470;2023-03-21T12:39:26;100786.97;;;13.90;91.46
10897;BME280;5501;51.176;6.470;2023-03-21T12:44:31;100793.13;;;13.92;90.65
10897;BME280;5501;51.176;6.470;2023-03-21T12:49:34;100761.25;;;13.87;90.05
10897;BME280;5501;51.176;6.470;2023-03-21T12:54:43;100756.00;;;13.84;90.65
10897;BME280;5501;51.176;6.470;2023-03-21T12:59:49;100751.22;;;14.14;87.95
10897;BME280;5501;51.176;6.470;2023-03-21T13:04:55;100752.00;;;14.16;86.99
10897;BME280;5501;51.176;6.470;2023-03-21T13:10:02;100730.63;;;14.16;87.50
10897;BME280;5501;51.176;6.470;2023-03-21T13:15:07;100739.94;;;14.27;87.93
10897;BME280;5501;51.176;6.470;2023-03-21T13:20:41;100731.63;;;14.35;86.83
10897;BME280;5501;51.176;6.470;2023-03-21T13:25:45;100717.78;;;14.45;85.74
10897;BME280;5501;51.176;6.470;2023-03-21T13:30:47;100708.31;;;14.37;85.63
10897;BME280;5501;51.176;6.470;2023-03-21T13:35:59;100705.81;;;14.34;86.27
10897;BME280;5501;51.176;6.470;2023-03-21T13:41:06;100702.53;;;14.86;84.87
10897;BME280;5501;51.176;6.470;2023-03-21T13:46:12;100700.25;;;14.97;82.45
10897;BME280;5501;51.176;6.470;2023-03-21T13:51:15;100698.00;;;14.88;80.40
10897;BME280;5501;51.176;6.470;2023-03-21T13:56:20;100700.53;;;14.91;82.71
10897;BME280;5501;51.176;6.470;2023-03-21T14:01:27;100696.06;;;15.10;80.17
10897;BME280;5501;51.176;6.470;2023-03-21T14:06:33;100703.34;;;15.45;74.82
10897;BME280;5501;51.176;6.470;2023-03-21T14:11:35;100684.25;;;15.32;66.53
10897;BME280;5501;51.176;6.470;2023-03-21T14:16:42;100687.72;;;15.36;66.70
10897;BME280;5501;51.176;6.470;2023-03-21T14:21:48;100675.19;;;15.72;65.65
10897;BME280;5501;51.176;6.470;2023-03-21T14:26:52;100675.19;;;15.72;66.04
10897;BME280;5501;51.176;6.470;2023-03-21T14:31:54;100667.19;;;15.89;64.60
10897;BME280;5501;51.176;6.470;2023-03-21T14:36:57;100670.28;;;15.63;65.94
10897;BME280;5501;51.176;6.470;2023-03-21T14:47:05;100660.88;;;16.07;62.87
10897;BME280;5501;51.176;6.470;2023-03-21T14:52:12;100654.06;;;16.00;58.94
10897;BME280;5501;51.176;6.470;2023-03-21T14:57:18;100644.38;;;15.98;56.89
10897;BME280;5501;51.176;6.470;2023-03-21T15:02:28;100648.41;;;15.89;56.20
10897;BME280;5501;51.176;6.470;2023-03-21T15:07:32;100648.41;;;15.89;55.92
10897;BME280;5501;51.176;6.470;2023-03-21T15:12:34;100632.53;;;16.02;55.49
10897;BME280;5501;51.176;6.470;2023-03-21T15:17:35;100633.41;;;16.19;56.66
10897;BME280;5501;51.176;6.470;2023-03-21T15:22:38;100627.56;;;16.28;56.42
10897;BME280;5501;51.176;6.470;2023-03-21T15:27:41;100618.41;;;16.32;54.70
10897;BME280;5501;51.176;6.470;2023-03-21T15:32:42;100612.56;;;16.24;53.17
10897;BME280;5501;51.176;6.470;2023-03-21T15:37:50;100622.84;;;16.16;53.79
10897;BME280;5501;51.176;6.470;2023-03-21T15:48:08;100625.19;;;15.71;55.81
10897;BME280;5501;51.176;6.470;2023-03-21T15:53:13;100624.88;;;15.77;57.31
10897;BME280;5501;51.176;6.470;2023-03-21T15:58:20;100631.50;;;15.87;56.01
10897;BME280;5501;51.176;6.470;2023-03-21T16:03:24;100620.94;;;15.84;56.74
10897;BME280;5501;51.176;6.470;2023-03-21T16:08:27;100618.19;;;15.86;56.47
10897;BME280;5501;51.176;6.470;2023-03-21T16:13:32;100622.44;;;15.73;57.25
10897;BME280;5501;51.176;6.470;2023-03-21T16:18:34;100614.94;;;15.62;57.95
10897;BME280;5501;51.176;6.470;2023-03-21T16:23:35;100599.78;;;15.61;58.38
10897;BME280;5501;51.176;6.470;2023-03-21T16:28:37;100602.16;;;15.67;58.66
10897;BME280;5501;51.176;6.470;2023-03-21T16:33:38;100605.31;;;15.75;59.09
10897;BME280;5501;51.176;6.470;2023-03-21T16:38:40;100603.44;;;15.77;59.26
10897;BME280;5501;51.176;6.470;2023-03-21T16:43:42;100603.59;;;15.74;58.52
10897;BME280;5501;51.176;6.470;2023-03-21T16:48:44;100602.31;;;15.64;59.55
10897;BME280;5501;51.176;6.470;2023-03-21T16:53:47;100609.41;;;15.65;59.41
10897;BME280;5501;51.176;6.470;2023-03-21T16:58:49;100616.66;;;15.63;59.42
10897;BME280;5501;51.176;6.470;2023-03-21T17:03:51;100622.00;;;15.63;59.74
10897;BME280;5501;51.176;6.470;2023-03-21T17:08:53;100625.09;;;15.56;60.06
10897;BME280;5501;51.176;6.470;2023-03-21T17:13:54;100633.06;;;15.57;60.49
10897;BME280;5501;51.176;6.470;2023-03-21T17:18:56;100646.25;;;15.43;62.11
10897;BME280;5501;51.176;6.470;2023-03-21T17:23:57;100651.78;;;15.40;61.83
10897;BME280;5501;51.176;6.470;2023-03-21T17:28:59;100648.84;;;15.26;65.83
10897;BME280;5501;51.176;6.470;2023-03-21T17:34:00;100652.25;;;15.11;67.21
10897;BME280;5501;51.176;6.470;2023-03-21T17:39:05;100651.78;;;15.03;65.43
10897;BME280;5501;51.176;6.470;2023-03-21T17:44:07;100653.94;;;15.13;66.11
10897;BME280;5501;51.176;6.470;2023-03-21T17:49:09;100642.34;;;15.13;65.91
10897;BME280;5501;51.176;6.470;2023-03-21T17:54:12;100644.81;;;14.99;68.60
10897;BME280;5501;51.176;6.470;2023-03-21T17:59:14;100650.13;;;14.80;69.48
10897;BME280;5501;51.176;6.470;2023-03-21T18:04:15;100640.94;;;14.86;69.33
10897;BME280;5501;51.176;6.470;2023-03-21T18:09:17;100642.34;;;15.13;73.89
10897;BME280;5501;51.176;6.470;2023-03-21T18:14:21;100644.56;;;14.85;70.62
10897;BME280;5501;51.176;6.470;2023-03-21T18:19:28;100652.72;;;14.82;71.26
10897;BME280;5501;51.176;6.470;2023-03-21T18:24:31;100644.34;;;14.71;73.29
10897;BME280;5501;51.176;6.470;2023-03-21T18:29:32;100647.81;;;14.73;73.33
10897;BME280;5501;51.176;6.470;2023-03-21T18:34:54;100643.91;;;14.61;74.14
10897;BME280;5501;51.176;6.470;2023-03-21T18:39:55;100658.47;;;14.54;75.18
10897;BME280;5501;51.176;6.470;2023-03-21T18:44:57;100659.88;;;14.63;74.73
10897;BME280;5501;51.176;6.470;2023-03-21T18:49:58;100657.94;;;14.66;74.98
10897;BME280;5501;51.176;6.470;2023-03-21T18:55:16;100658.94;;;14.64;75.19
10897;BME280;5501;51.176;6.470;2023-03-21T19:00:19;100653.59;;;14.64;74.99
10897;BME280;5501;51.176;6.470;2023-03-21T19:05:23;100651.44;;;14.72;75.50
10897;BME280;5501;51.176;6.470;2023-03-21T19:10:25;100646.44;;;14.64;75.98
10897;BME280;5501;51.176;6.470;2023-03-21T19:15:27;100660.81;;;14.62;76.22
10897;BME280;5501;51.176;6.470;2023-03-21T19:20:28;100645.19;;;14.71;76.26
10897;BME280;5501;51.176;6.470;2023-03-21T19:25:30;100643.91;;;14.61;76.61
10897;BME280;5501;51.176;6.470;2023-03-21T19:30:31;100634.59;;;14.50;77.47
10897;BME280;5501;51.176;6.470;2023-03-21T19:35:34;100644.16;;;14.35;78.41
10897;BME280;5501;51.176;6.470;2023-03-21T19:40:38;100633.56;;;14.34;78.45
10897;BME280;5501;51.176;6.470;2023-03-21T19:45:46;100631.88;;;14.31;79.47
10897;BME280;5501;51.176;6.470;2023-03-21T19:50:48;100624.03;;;14.07;80.39
10897;BME280;5501;51.176;6.470;2023-03-21T19:56:10;100628.72;;;14.02;81.12
10897;BME280;5501;51.176;6.470;2023-03-21T20:01:24;100637.25;;;13.90;81.88
10897;BME280;5501;51.176;6.470;2023-03-21T20:06:26;100631.75;;;13.93;81.78
10897;BME280;5501;51.176;6.470;2023-03-21T20:11:27;100624.00;;;13.67;83.46
10897;BME280;5501;51.176;6.470;2023-03-21T20:16:29;100625.47;;;13.74;83.16
10897;BME280;5501;51.176;6.470;2023-03-21T20:21:35;100607.56;;;13.76;82.83
10897;BME280;5501;51.176;6.470;2023-03-21T20:26:49;100605.09;;;13.71;83.14
10897;BME280;5501;51.176;6.470;2023-03-21T20:31:53;100618.63;;;13.67;83.67
10897;BME280;5501;51.176;6.470;2023-03-21T20:36:55;100610.16;;;13.77;83.26
10897;BME280;5501;51.176;6.470;2023-03-21T20:41:58;100612.06;;;13.75;83.41
10897;BME280;5501;51.176;6.470;2023-03-21T20:47:00;100611.44;;;13.69;83.70
10897;BME280;5501;51.176;6.470;2023-03-21T20:52:04;100617.03;;;13.63;84.62
10897;BME280;5501;51.176;6.470;2023-03-21T20:57:26;100607.13;;;13.45;85.41
10897;BME280;5501;51.176;6.470;2023-03-21T21:02:28;100611.34;;;13.29;86.52
10897;BME280;5501;51.176;6.470;2023-03-21T21:07:29;100607.34;;;13.39;86.26
10897;BME280;5501;51.176;6.470;2023-03-21T21:12:31;100607.97;;;13.24;86.04
10897;BME280;5501;51.176;6.470;2023-03-21T21:17:32;100613.75;;;13.13;86.63
10897;BME280;5501;51.176;6.470;2023-03-21T21:22:54;100623.25;;;13.42;84.94
10897;BME280;5501;51.176;6.470;2023-03-21T21:28:01;100623.38;;;13.39;84.65
10897;BME280;5501;51.176;6.470;2023-03-21T21:33:03;100608.72;;;13.49;83.68
10897;BME280;5501;51.176;6.470;2023-03-21T21:38:05;100615.56;;;13.34;84.13
10897;BME280;5501;51.176;6.470;2023-03-21T21:43:07;100605.50;;;13.41;84.04
10897;BME280;5501;51.176;6.470;2023-03-21T21:48:08;100608.84;;;13.46;83.88
10897;BME280;5501;51.176;6.470;2023-03-21T21:53:10;100604.25;;;13.28;84.75
10897;BME280;5501;51.176;6.470;2023-03-21T21:58:11;100596.94;;;13.33;84.06
10897;BME280;5501;51.176;6.470;2023-03-21T22:03:13;100593.22;;;13.37;83.58
10897;BME280;5501;51.176;6.470;2023-03-21T22:08:15;100591.16;;;13.22;84.15
10897;BME280;5501;51.176;6.470;2023-03-21T22:13:17;100592.22;;;13.39;83.06
10897;BME280;5501;51.176;6.470;2023-03-21T22:18:18;100593.81;;;13.22;83.51
10897;BME280;5501;51.176;6.470;2023-03-21T22:23:20;100591.94;;;13.24;83.45
10897;BME280;5501;51.176;6.470;2023-03-21T22:28:22;100592.28;;;13.38;82.65
10897;BME280;5501;51.176;6.470;2023-03-21T22:33:25;100587.97;;;13.34;82.81
10897;BME280;5501;51.176;6.470;2023-03-21T22:38:27;100586.97;;;13.36;82.55
10897;BME280;5501;51.176;6.470;2023-03-21T22:43:29;100586.19;;;13.13;83.80
10897;BME280;5501;51.176;6.470;2023-03-21T22:48:34;100586.81;;;13.19;83.58
10897;BME280;5501;51.176;6.470;2023-03-21T22:53:35;100584.19;;;13.18;84.00
10897;BME280;5501;51.176;6.470;2023-03-21T22:58:36;100587.13;;;13.12;84.16
10897;BME280;5501;51.176;6.470;2023-03-21T23:03:38;100590.97;;;13.05;85.14
10897;BME280;5501;51.176;6.470;2023-03-21T23:08:40;100580.03;;;13.11;84.67
10897;BME280;5501;51.176;6.470;2023-03-21T23:13:41;100569.50;;;13.08;85.06
10897;BME280;5501;51.176;6.470;2023-03-21T23:18:47;100570.47;;;13.27;83.89
10897;BME280;5501;51.176;6.470;2023-03-21T23:23:49;100571.72;;;13.18;83.97
10897;BME280;5501;51.176;6.470;2023-03-21T23:28:51;100563.38;;;13.04;84.45
10897;BME280;5501;51.176;6.470;2023-03-21T23:33:52;100563.09;;;13.12;84.43
10897;BME280;5501;51.176;6.470;2023-03-21T23:38:54;100570.28;;;13.10;84.64
10897;BME280;5501;51.176;6.470;2023-03-21T23:43:56;100562.28;;;13.10;84.80
10897;BME280;5501;51.176;6.470;2023-03-21T23:48:57;100560.66;;;13.06;85.12
10897;BME280;5501;51.176;6.470;2023-03-21T23:53:59;100552.13;;;12.96;85.63
10897;BME280;5501;51.176;6.470;2023-03-21T23:59:00;100547.38;;;13.04;85.44
